createdAt,value
2016-11-23T00:00:40.922Z,7.98
2016-11-23T00:01:55.850Z,7.93
2016-11-23T00:02:40.964Z,7.98
2016-11-23T00:03:41.014Z,7.9
2016-11-23T00:04:41.035Z,8
2016-11-23T00:06:41.040Z,7.87
2016-11-23T00:07:41.057Z,7.95
2016-11-23T00:08:41.085Z,7.89
2016-11-23T00:09:56.016Z,7.87
2016-11-23T00:10:41.119Z,7.86
2016-11-23T00:11:41.145Z,7.85
2016-11-23T00:12:41.163Z,7.77
2016-11-23T00:13:41.182Z,7.69
2016-11-23T00:15:56.130Z,7.6
2016-11-23T00:16:56.151Z,7.72
2016-11-23T00:17:41.258Z,7.74
2016-11-23T00:18:41.280Z,7.68
2016-11-23T00:19:41.305Z,7.61
2016-11-23T00:20:41.334Z,7.58
2016-11-23T00:21:41.341Z,7.55
2016-11-23T00:22:41.371Z,7.43
2016-11-23T00:23:41.378Z,7.4
2016-11-23T00:24:41.399Z,7.43
2016-11-23T00:26:41.436Z,7.48
2016-11-23T00:27:41.471Z,7.45
2016-11-23T00:28:41.488Z,7.39
2016-11-23T00:30:41.514Z,7.28
2016-11-23T00:31:41.539Z,7.32
2016-11-23T00:32:41.563Z,7.43
2016-11-23T00:33:41.576Z,7.28
2016-11-23T00:34:41.611Z,7.28
2016-11-23T00:35:41.627Z,7.3
2016-11-23T00:36:41.641Z,7.24
2016-11-23T00:37:41.653Z,7.34
2016-11-23T00:38:41.687Z,7.37
2016-11-23T00:39:41.699Z,7.37
2016-11-23T00:40:41.727Z,7.35
2016-11-23T00:41:56.649Z,7.39
2016-11-23T00:42:41.784Z,7.31
2016-11-23T00:43:41.775Z,7.37
2016-11-23T00:44:41.793Z,7.34
2016-11-23T00:45:56.729Z,7.4
2016-11-23T00:46:41.833Z,7.39
2016-11-23T00:47:41.859Z,7.39
2016-11-23T00:48:41.878Z,7.31
2016-11-23T00:49:41.896Z,7.39
2016-11-23T00:50:41.913Z,7.24
2016-11-23T00:51:41.966Z,7.27
2016-11-23T00:52:41.948Z,7.09
2016-11-23T00:53:41.971Z,7.25
2016-11-23T00:54:41.991Z,7.12
2016-11-23T00:55:42.016Z,7.28
2016-11-23T00:56:42.039Z,7.27
2016-11-23T00:58:42.070Z,7.07
2016-11-23T00:59:42.095Z,7.03
2016-11-23T01:00:42.115Z,7.05
2016-11-23T01:02:42.152Z,6.95
2016-11-23T01:03:57.080Z,7.09
2016-11-23T01:04:57.103Z,7.12
2016-11-23T01:05:57.118Z,6.97
2016-11-23T01:06:42.232Z,6.98
2016-11-23T01:07:42.256Z,6.81
2016-11-23T01:08:42.273Z,6.76
2016-11-23T01:09:42.288Z,6.84
2016-11-23T01:10:42.310Z,6.71
2016-11-23T01:11:42.332Z,6.71
2016-11-23T01:12:57.264Z,6.62
2016-11-23T01:13:42.378Z,6.64
2016-11-23T01:14:42.392Z,6.55
2016-11-23T01:15:42.405Z,6.51
2016-11-23T01:16:42.430Z,6.46
2016-11-23T01:17:42.452Z,6.55
2016-11-23T01:18:57.377Z,6.34
2016-11-23T01:19:42.498Z,6.51
2016-11-23T01:20:42.510Z,6.54
2016-11-23T01:21:42.528Z,6.59
2016-11-23T01:22:42.550Z,6.58
2016-11-23T01:23:42.566Z,6.52
2016-11-23T01:24:42.888Z,6.51
2016-11-23T01:25:42.601Z,6.38
2016-11-23T01:26:42.625Z,6.51
2016-11-23T01:27:42.639Z,6.49
2016-11-23T01:30:42.699Z,6.59
2016-11-23T01:31:42.723Z,6.62
2016-11-23T01:32:42.735Z,6.56
2016-11-23T01:33:57.670Z,6.58
2016-11-23T01:34:42.779Z,6.61
2016-11-23T01:35:42.798Z,6.56
2016-11-23T01:36:42.815Z,6.66
2016-11-23T01:37:42.837Z,6.59
2016-11-23T01:39:42.871Z,6.74
2016-11-23T01:40:42.896Z,6.58
2016-11-23T01:41:42.911Z,6.62
2016-11-23T01:42:42.937Z,6.61
2016-11-23T01:43:42.949Z,6.59
2016-11-23T01:44:57.885Z,6.7
2016-11-23T01:45:42.992Z,6.74
2016-11-23T01:47:43.030Z,6.56
2016-11-23T01:48:43.055Z,6.58
2016-11-23T01:49:43.072Z,6.56
2016-11-23T01:50:43.089Z,6.55
2016-11-23T01:52:43.149Z,6.59
2016-11-23T01:53:43.149Z,6.56
2016-11-23T01:54:43.163Z,6.59
2016-11-23T01:55:43.182Z,6.55
2016-11-23T01:56:43.233Z,6.64
2016-11-23T01:57:43.249Z,6.55
2016-11-23T01:58:43.238Z,6.46
2016-11-23T01:59:43.264Z,6.41
2016-11-23T02:00:58.228Z,6.37
2016-11-23T02:01:58.212Z,6.3
2016-11-23T02:02:43.343Z,6.3
2016-11-23T02:03:43.337Z,6.27
2016-11-23T02:04:43.354Z,6.25
2016-11-23T02:05:43.370Z,6.28
2016-11-23T02:06:43.396Z,6.28
2016-11-23T02:07:43.412Z,6.3
2016-11-23T02:08:43.427Z,6.31
2016-11-23T02:09:43.447Z,6.28
2016-11-23T02:10:43.469Z,6.34
2016-11-23T02:11:43.523Z,6.37
2016-11-23T02:12:43.514Z,6.41
2016-11-23T02:13:43.824Z,6.49
2016-11-23T02:14:43.549Z,6.54
2016-11-23T02:15:58.480Z,6.55
2016-11-23T02:16:58.495Z,6.58
2016-11-23T02:17:43.602Z,6.58
2016-11-23T02:18:43.623Z,6.62
2016-11-23T02:19:43.643Z,6.71
2016-11-23T02:20:43.659Z,6.67
2016-11-23T02:21:43.681Z,6.67
2016-11-23T02:22:43.708Z,6.7
2016-11-23T02:23:43.745Z,6.7
2016-11-23T02:24:43.732Z,6.64
2016-11-23T02:25:43.756Z,6.61
2016-11-23T02:26:43.770Z,6.58
2016-11-23T02:27:43.795Z,6.66
2016-11-23T02:29:43.828Z,6.59
2016-11-23T02:30:43.850Z,6.56
2016-11-23T02:31:43.870Z,6.59
2016-11-23T02:32:58.801Z,6.69
2016-11-23T02:33:43.907Z,6.69
2016-11-23T02:34:43.932Z,6.58
2016-11-23T02:35:43.945Z,6.59
2016-11-23T02:36:43.966Z,6.66
2016-11-23T02:37:58.897Z,6.62
2016-11-23T02:38:44.001Z,6.69
2016-11-23T02:39:44.022Z,6.73
2016-11-23T02:40:44.044Z,6.56
2016-11-23T02:41:44.068Z,6.54
2016-11-23T02:42:44.080Z,6.49
2016-11-23T02:43:44.102Z,6.51
2016-11-23T02:44:44.116Z,6.52
2016-11-23T02:45:44.134Z,6.41
2016-11-23T02:46:44.155Z,6.44
2016-11-23T02:47:59.094Z,6.41
2016-11-23T02:48:44.205Z,6.41
2016-11-23T02:49:59.128Z,6.41
2016-11-23T02:50:44.235Z,6.41
2016-11-23T02:51:44.254Z,6.37
2016-11-23T02:52:44.297Z,6.36
2016-11-23T02:53:44.293Z,6.38
2016-11-23T02:54:59.219Z,6.3
2016-11-23T02:55:44.336Z,6.22
2016-11-23T02:56:44.344Z,6.19
2016-11-23T02:57:44.368Z,6.21
2016-11-23T02:58:44.390Z,6.09
2016-11-23T02:59:44.410Z,6.12
2016-11-23T03:00:44.421Z,6.08
2016-11-23T03:02:44.465Z,6.12
2016-11-23T03:03:44.483Z,6.12
2016-11-23T03:04:44.501Z,6.12
2016-11-23T03:05:44.541Z,6.12
2016-11-23T03:06:44.541Z,6.08
2016-11-23T03:07:44.556Z,6.12
2016-11-23T03:08:44.577Z,6.11
2016-11-23T03:09:44.596Z,6.09
2016-11-23T03:10:44.624Z,6.08
2016-11-23T03:11:44.634Z,6.11
2016-11-23T03:12:44.657Z,6.11
2016-11-23T03:13:44.675Z,6.17
2016-11-23T03:14:44.692Z,6.18
2016-11-23T03:15:44.710Z,6.11
2016-11-23T03:16:44.728Z,6.12
2016-11-23T03:17:44.744Z,6.03
2016-11-23T03:18:44.775Z,6.12
2016-11-23T03:19:59.699Z,6.08
2016-11-23T03:20:44.801Z,6.11
2016-11-23T03:21:44.827Z,6.06
2016-11-23T03:22:44.843Z,6.08
2016-11-23T03:23:44.856Z,6.09
2016-11-23T03:24:44.883Z,6
2016-11-23T03:25:59.810Z,5.85
2016-11-23T03:26:44.915Z,5.82
2016-11-23T03:27:44.944Z,5.81
2016-11-23T03:29:44.974Z,5.76
2016-11-23T03:30:44.990Z,5.78
2016-11-23T03:31:45.019Z,5.82
2016-11-23T03:32:45.030Z,5.83
2016-11-23T03:33:45.052Z,5.76
2016-11-23T03:34:45.071Z,5.83
2016-11-23T03:36:45.106Z,5.81
2016-11-23T03:37:45.125Z,5.74
2016-11-23T03:38:45.148Z,5.71
2016-11-23T03:39:45.161Z,5.65
2016-11-23T03:40:45.178Z,5.61
2016-11-23T03:41:45.203Z,5.51
2016-11-23T03:42:45.225Z,5.49
2016-11-23T03:43:45.235Z,5.56
2016-11-23T03:44:45.254Z,5.58
2016-11-23T03:45:45.271Z,5.6
2016-11-23T03:46:45.289Z,5.6
2016-11-23T03:47:45.308Z,5.65
2016-11-23T03:48:45.331Z,5.65
2016-11-23T03:49:45.344Z,5.64
2016-11-23T03:50:45.371Z,5.72
2016-11-23T03:52:00.299Z,5.76
2016-11-23T03:52:45.408Z,5.71
2016-11-23T03:54:00.337Z,5.86
2016-11-23T03:54:45.447Z,5.83
2016-11-23T03:55:45.461Z,5.79
2016-11-23T03:56:45.479Z,5.9
2016-11-23T03:57:45.499Z,5.91
2016-11-23T03:58:45.514Z,6.08
2016-11-23T03:59:45.536Z,6.09
2016-11-23T04:00:45.558Z,6.09
2016-11-23T04:01:45.575Z,6.03
2016-11-23T04:02:45.623Z,6.06
2016-11-23T04:03:45.615Z,5.99
2016-11-23T04:04:45.623Z,5.99
2016-11-23T04:05:45.648Z,6.06
2016-11-23T04:06:45.671Z,6.09
2016-11-23T04:08:00.594Z,6.06
2016-11-23T04:08:45.707Z,6.12
2016-11-23T04:09:45.725Z,5.99
2016-11-23T04:10:45.740Z,6.01
2016-11-23T04:11:45.758Z,6.09
2016-11-23T04:12:45.785Z,6.08
2016-11-23T04:13:45.795Z,6.08
2016-11-23T04:15:00.724Z,6.12
2016-11-23T04:15:45.847Z,6.01
2016-11-23T04:16:45.849Z,6.12
2016-11-23T04:17:45.877Z,6.03
2016-11-23T04:18:45.896Z,6.08
2016-11-23T04:19:45.917Z,6.08
2016-11-23T04:20:45.929Z,6.08
2016-11-23T04:21:45.948Z,6.14
2016-11-23T04:23:00.875Z,6.11
2016-11-23T04:23:45.983Z,6
2016-11-23T04:25:00.919Z,5.96
2016-11-23T04:25:46.339Z,6
2016-11-23T04:26:46.044Z,6.06
2016-11-23T04:27:46.061Z,6.04
2016-11-23T04:28:46.073Z,6.01
2016-11-23T04:29:46.096Z,5.9
2016-11-23T04:30:46.119Z,5.97
2016-11-23T04:31:46.138Z,5.96
2016-11-23T04:32:46.148Z,5.91
2016-11-23T04:34:46.195Z,6.06
2016-11-23T04:35:46.205Z,6.04
2016-11-23T04:36:46.227Z,6.08
2016-11-23T04:37:46.239Z,5.97
2016-11-23T04:38:46.266Z,6.01
2016-11-23T04:39:46.285Z,5.99
2016-11-23T04:40:46.301Z,5.97
2016-11-23T04:41:46.323Z,5.94
2016-11-23T04:42:46.342Z,6
2016-11-23T04:43:46.354Z,5.93
2016-11-23T04:45:01.288Z,5.94
2016-11-23T04:45:46.500Z,5.89
2016-11-23T04:46:46.411Z,5.79
2016-11-23T04:47:46.430Z,5.91
2016-11-23T04:48:46.452Z,5.89
2016-11-23T04:49:46.473Z,5.76
2016-11-23T04:50:46.492Z,5.79
2016-11-23T04:51:46.503Z,5.76
2016-11-23T04:52:46.529Z,5.75
2016-11-23T04:53:46.548Z,5.71
2016-11-23T04:55:46.584Z,5.71
2016-11-23T04:56:46.612Z,5.72
2016-11-23T04:57:46.614Z,5.76
2016-11-23T04:58:46.639Z,5.81
2016-11-23T04:59:46.654Z,5.78
2016-11-23T05:00:46.675Z,5.74
2016-11-23T05:01:46.692Z,5.64
2016-11-23T05:02:46.714Z,5.65
2016-11-23T05:03:46.729Z,5.64
2016-11-23T05:04:46.750Z,5.6
2016-11-23T05:05:46.774Z,5.76
2016-11-23T05:06:46.981Z,5.67
2016-11-23T05:07:46.817Z,5.61
2016-11-23T05:09:46.841Z,5.57
2016-11-23T05:11:01.768Z,5.51
2016-11-23T05:11:46.876Z,5.49
2016-11-23T05:13:01.808Z,5.61
2016-11-23T05:13:46.913Z,5.63
2016-11-23T05:14:46.936Z,5.61
2016-11-23T05:15:46.982Z,5.6
2016-11-23T05:16:46.977Z,5.54
2016-11-23T05:17:46.997Z,5.51
2016-11-23T05:18:47.014Z,5.57
2016-11-23T05:19:47.032Z,5.51
2016-11-23T05:20:47.049Z,5.38
2016-11-23T05:21:47.063Z,5.42
2016-11-23T05:22:47.086Z,5.36
2016-11-23T05:23:47.106Z,5.43
2016-11-23T05:24:47.117Z,5.48
2016-11-23T05:25:47.136Z,5.43
2016-11-23T05:27:02.070Z,5.39
2016-11-23T05:27:47.180Z,5.4
2016-11-23T05:29:02.107Z,5.38
2016-11-23T05:29:47.213Z,5.4
2016-11-23T05:30:47.228Z,5.42
2016-11-23T05:31:47.558Z,5.36
2016-11-23T05:33:47.287Z,5.38
2016-11-23T05:34:47.299Z,5.3
2016-11-23T05:35:47.330Z,5.25
2016-11-23T05:36:47.343Z,5.17
2016-11-23T05:37:47.361Z,5.15
2016-11-23T05:38:47.375Z,5.15
2016-11-23T05:39:47.397Z,5.18
2016-11-23T05:40:47.415Z,5.2
2016-11-23T05:41:47.431Z,5.2
2016-11-23T05:43:47.468Z,5.12
2016-11-23T05:44:47.482Z,5.15
2016-11-23T05:45:47.509Z,5.12
2016-11-23T05:46:47.526Z,5.1
2016-11-23T05:47:47.544Z,5.09
2016-11-23T05:48:47.554Z,5.03
2016-11-23T05:49:47.581Z,5.03
2016-11-23T05:50:47.594Z,5.1
2016-11-23T05:51:47.619Z,4.94
2016-11-23T05:52:47.637Z,5.02
2016-11-23T05:54:47.672Z,4.96
2016-11-23T05:55:47.690Z,5
2016-11-23T05:56:47.730Z,4.89
2016-11-23T05:58:47.743Z,4.94
2016-11-23T05:59:47.755Z,5.1
2016-11-23T06:00:47.777Z,5.02
2016-11-23T06:01:47.796Z,5.06
2016-11-23T06:02:47.815Z,4.94
2016-11-23T06:04:47.853Z,4.94
2016-11-23T06:06:47.884Z,4.89
2016-11-23T06:07:47.910Z,4.92
2016-11-23T06:08:47.918Z,4.86
2016-11-23T06:09:47.942Z,4.73
2016-11-23T06:10:47.959Z,4.7
2016-11-23T06:11:47.979Z,4.72
2016-11-23T06:12:47.991Z,4.73
2016-11-23T06:13:48.016Z,4.75
2016-11-23T06:14:48.028Z,4.89
2016-11-23T06:16:02.962Z,5.02
2016-11-23T06:16:48.077Z,5.02
2016-11-23T06:17:48.089Z,5.04
2016-11-23T06:18:48.127Z,4.99
2016-11-23T06:20:03.033Z,4.94
2016-11-23T06:21:03.048Z,4.94
2016-11-23T06:21:48.166Z,4.94
2016-11-23T06:22:48.182Z,5
2016-11-23T06:23:48.207Z,4.88
2016-11-23T06:24:48.216Z,5.02
2016-11-23T06:25:48.234Z,4.99
2016-11-23T06:26:48.247Z,4.88
2016-11-23T06:28:48.285Z,4.92
2016-11-23T06:30:03.516Z,4.91
2016-11-23T06:30:48.322Z,5
2016-11-23T06:31:48.335Z,4.89
2016-11-23T06:32:48.361Z,4.94
2016-11-23T06:34:03.288Z,4.96
2016-11-23T06:34:48.397Z,4.96
2016-11-23T06:35:48.417Z,5.04
2016-11-23T06:37:03.339Z,5.12
2016-11-23T06:37:48.449Z,5.15
2016-11-23T06:38:48.475Z,5.21
2016-11-23T06:39:48.481Z,5.24
2016-11-23T06:40:48.501Z,5.3
2016-11-23T06:41:48.520Z,5.39
2016-11-23T06:42:48.548Z,5.42
2016-11-23T06:43:48.558Z,5.39
2016-11-23T06:44:48.570Z,5.35
2016-11-23T06:46:03.502Z,5.39
2016-11-23T06:46:48.607Z,5.35
2016-11-23T06:47:48.632Z,5.4
2016-11-23T06:48:48.724Z,5.36
2016-11-23T06:49:48.663Z,5.3
2016-11-23T06:50:49.000Z,5.3
2016-11-23T06:51:48.736Z,5.35
2016-11-23T06:53:48.735Z,5.21
2016-11-23T06:54:48.762Z,5.27
2016-11-23T06:55:48.793Z,5.2
2016-11-23T06:56:48.793Z,5.22
2016-11-23T06:57:48.813Z,5.28
2016-11-23T06:58:48.828Z,5.28
2016-11-23T06:59:48.854Z,5.3
2016-11-23T07:00:48.861Z,5.36
2016-11-23T07:02:48.903Z,5.24
2016-11-23T07:03:48.945Z,5.21
2016-11-23T07:04:48.937Z,5.25
2016-11-23T07:05:48.956Z,5.18
2016-11-23T07:08:03.901Z,5.2
2016-11-23T07:08:49.014Z,5.27
2016-11-23T07:09:49.033Z,5.22
2016-11-23T07:11:49.370Z,5.33
2016-11-23T07:12:49.081Z,5.27
2016-11-23T07:13:49.100Z,5.33
2016-11-23T07:14:49.152Z,5.31
2016-11-23T07:15:49.135Z,5.42
2016-11-23T07:16:49.157Z,5.48
2016-11-23T07:18:04.084Z,5.43
2016-11-23T07:18:49.191Z,5.54
2016-11-23T07:19:49.222Z,5.54
2016-11-23T07:20:49.223Z,5.6
2016-11-23T07:21:49.249Z,5.63
2016-11-23T07:22:49.273Z,5.67
2016-11-23T07:23:49.281Z,5.75
2016-11-23T07:25:04.212Z,5.83
2016-11-23T07:25:49.326Z,5.78
2016-11-23T07:27:49.357Z,5.86
2016-11-23T07:28:49.374Z,5.85
2016-11-23T07:29:49.395Z,5.89
2016-11-23T07:30:49.413Z,5.96
2016-11-23T07:31:49.426Z,6.01
2016-11-23T07:33:04.366Z,6.03
2016-11-23T07:33:49.469Z,5.93
2016-11-23T07:35:49.504Z,6.12
2016-11-23T07:36:49.525Z,6.18
2016-11-23T07:37:49.551Z,6.21
2016-11-23T07:38:49.568Z,6.14
2016-11-23T07:40:04.489Z,6.25
2016-11-23T07:42:49.667Z,6.43
2016-11-23T07:43:49.656Z,6.44
2016-11-23T07:44:49.701Z,6.51
2016-11-23T07:45:49.699Z,6.52
2016-11-23T07:46:49.713Z,6.41
2016-11-23T07:47:49.737Z,6.37
2016-11-23T07:48:49.757Z,6.51
2016-11-23T07:49:49.769Z,6.59
2016-11-23T07:50:50.089Z,6.56
2016-11-23T07:51:49.809Z,6.58
2016-11-23T07:52:49.820Z,6.58
2016-11-23T07:53:49.842Z,6.59
2016-11-23T07:54:49.870Z,6.54
2016-11-23T07:55:49.883Z,6.58
2016-11-23T07:56:49.904Z,6.58
2016-11-23T07:57:49.940Z,6.64
2016-11-23T07:58:49.972Z,6.55
2016-11-23T07:59:49.966Z,6.54
2016-11-23T08:00:49.991Z,6.58
2016-11-23T08:01:49.997Z,6.58
2016-11-23T08:02:50.021Z,6.67
2016-11-23T08:03:50.032Z,6.59
2016-11-23T08:05:04.967Z,6.59
2016-11-23T08:06:04.984Z,6.66
2016-11-23T08:06:50.092Z,6.66
2016-11-23T08:07:50.116Z,6.71
2016-11-23T08:08:50.131Z,6.69
2016-11-23T08:10:50.171Z,6.71
2016-11-23T08:11:50.192Z,6.85
2016-11-23T08:12:50.206Z,6.8
2016-11-23T08:13:50.264Z,6.88
2016-11-23T08:14:50.252Z,6.91
2016-11-23T08:15:50.269Z,6.94
2016-11-23T08:16:50.285Z,6.97
2016-11-23T08:17:50.313Z,7.13
2016-11-23T08:18:50.324Z,7.16
2016-11-23T08:19:50.340Z,7.2
2016-11-23T08:21:05.277Z,7.28
2016-11-23T08:21:50.381Z,7.24
2016-11-23T08:22:50.406Z,7.3
2016-11-23T08:24:05.336Z,7.4
2016-11-23T08:24:50.442Z,7.45
2016-11-23T08:25:50.461Z,7.46
2016-11-23T08:27:05.391Z,7.49
2016-11-23T08:27:50.505Z,7.69
2016-11-23T08:29:50.546Z,7.61
2016-11-23T08:30:50.868Z,7.64
2016-11-23T08:31:50.584Z,7.68
2016-11-23T08:32:50.609Z,7.75
2016-11-23T08:33:50.620Z,7.71
2016-11-23T08:34:50.637Z,7.71
2016-11-23T08:35:50.660Z,7.67
2016-11-23T08:37:05.591Z,7.74
2016-11-23T08:38:05.612Z,7.79
2016-11-23T08:38:50.716Z,7.8
2016-11-23T08:39:50.744Z,7.82
2016-11-23T08:40:50.756Z,7.87
2016-11-23T08:41:50.771Z,7.83
2016-11-23T08:42:50.798Z,7.97
2016-11-23T08:43:50.813Z,8.02
2016-11-23T08:44:50.846Z,8.01
2016-11-23T08:45:50.859Z,8.07
2016-11-23T08:46:50.874Z,8.25
2016-11-23T08:47:50.901Z,8.08
2016-11-23T08:48:50.917Z,8.07
2016-11-23T08:49:50.935Z,8.07
2016-11-23T08:50:50.965Z,8.07
2016-11-23T08:51:50.985Z,8.04
2016-11-23T08:53:05.912Z,8.07
2016-11-23T08:53:51.019Z,7.98
2016-11-23T08:55:05.950Z,8.04
2016-11-23T08:55:51.058Z,8.05
2016-11-23T08:56:51.076Z,8.1
2016-11-23T08:57:51.099Z,8.04
2016-11-23T08:58:51.113Z,8.08
2016-11-23T08:59:51.129Z,8.11
2016-11-23T09:00:51.168Z,8.16
2016-11-23T09:01:51.181Z,8.18
2016-11-23T09:02:51.198Z,8.07
2016-11-23T09:03:51.215Z,8.2
2016-11-23T09:04:51.235Z,8.22
2016-11-23T09:05:51.257Z,8.22
2016-11-23T09:06:51.273Z,8.22
2016-11-23T09:08:06.209Z,8.23
2016-11-23T09:09:06.229Z,8.28
2016-11-23T09:09:51.334Z,8.33
2016-11-23T09:10:51.363Z,8.28
2016-11-23T09:12:51.398Z,8.33
2016-11-23T09:13:51.412Z,8.33
2016-11-23T09:14:51.437Z,8.43
2016-11-23T09:15:51.455Z,8.33
2016-11-23T09:16:51.480Z,8.44
2016-11-23T09:17:51.496Z,8.44
2016-11-23T09:18:51.521Z,8.47
2016-11-23T09:19:51.537Z,8.41
2016-11-23T09:20:51.555Z,8.43
2016-11-23T09:21:51.579Z,8.33
2016-11-23T09:22:51.598Z,8.37
2016-11-23T09:23:51.616Z,8.53
2016-11-23T09:24:51.637Z,8.5
2016-11-23T09:25:51.653Z,8.5
2016-11-23T09:28:06.612Z,8.53
2016-11-23T09:29:06.627Z,8.56
2016-11-23T09:29:51.743Z,8.56
2016-11-23T09:31:51.785Z,8.62
2016-11-23T09:32:51.800Z,8.66
2016-11-23T09:34:51.838Z,8.62
2016-11-23T09:35:51.863Z,8.71
2016-11-23T09:36:51.881Z,8.65
2016-11-23T09:37:51.903Z,8.62
2016-11-23T09:38:51.921Z,8.56
2016-11-23T09:40:06.853Z,8.71
2016-11-23T09:40:51.965Z,8.71
2016-11-23T09:41:51.985Z,8.66
2016-11-23T09:42:51.997Z,8.71
2016-11-23T09:43:52.026Z,8.65
2016-11-23T09:44:52.045Z,8.63
2016-11-23T09:45:52.070Z,8.79
2016-11-23T09:46:52.083Z,8.83
2016-11-23T09:47:52.109Z,8.79
2016-11-23T09:48:52.129Z,8.92
2016-11-23T09:49:52.150Z,9.02
2016-11-23T09:50:52.161Z,8.99
2016-11-23T09:51:52.185Z,9.01
2016-11-23T09:52:52.209Z,9.04
2016-11-23T09:53:52.227Z,9.13
2016-11-23T09:54:52.245Z,9.08
2016-11-23T09:56:52.293Z,9.26
2016-11-23T09:57:52.308Z,9.4
2016-11-23T09:58:52.333Z,9.42
2016-11-23T09:59:52.349Z,9.35
2016-11-23T10:00:52.364Z,9.46
2016-11-23T10:01:52.391Z,9.46
2016-11-23T10:02:52.417Z,9.43
2016-11-23T10:03:52.436Z,9.46
2016-11-23T10:04:52.455Z,9.54
2016-11-23T10:05:52.475Z,9.58
2016-11-23T10:06:52.496Z,9.66
2016-11-23T10:07:52.516Z,9.69
2016-11-23T10:08:52.536Z,9.72
2016-11-23T10:09:52.563Z,9.86
2016-11-23T10:10:52.573Z,9.89
2016-11-23T10:12:52.618Z,9.91
2016-11-23T10:13:52.638Z,9.96
2016-11-23T10:14:52.662Z,9.97
2016-11-23T10:15:52.691Z,10.04
2016-11-23T10:16:52.702Z,9.97
2016-11-23T10:18:07.639Z,10.15
2016-11-23T10:19:07.655Z,10.26
2016-11-23T10:19:52.764Z,10.17
2016-11-23T10:20:52.794Z,10.15
2016-11-23T10:21:52.814Z,10.29
2016-11-23T10:22:52.841Z,10.23
2016-11-23T10:23:52.857Z,10.26
2016-11-23T10:24:52.876Z,10.4
2016-11-23T10:25:52.897Z,10.41
2016-11-23T10:26:52.917Z,10.34
2016-11-23T10:28:08.161Z,10.53
2016-11-23T10:29:07.876Z,10.56
2016-11-23T10:30:07.897Z,10.63
2016-11-23T10:30:52.997Z,10.67
2016-11-23T10:31:53.029Z,10.66
2016-11-23T10:32:53.048Z,10.56
2016-11-23T10:33:53.065Z,10.7
2016-11-23T10:34:53.092Z,10.74
2016-11-23T10:35:53.120Z,10.7
2016-11-23T10:36:53.137Z,10.82
2016-11-23T10:37:53.161Z,10.7
2016-11-23T10:38:53.172Z,10.86
2016-11-23T10:39:53.201Z,10.7
2016-11-23T10:40:53.220Z,10.78
2016-11-23T10:41:53.239Z,10.82
2016-11-23T10:43:08.179Z,10.68
2016-11-23T10:43:53.287Z,10.76
2016-11-23T10:45:08.219Z,10.78
2016-11-23T10:45:53.328Z,10.74
2016-11-23T10:46:53.353Z,10.79
2016-11-23T10:47:53.378Z,10.7
2016-11-23T10:48:53.395Z,10.73
2016-11-23T10:49:53.417Z,10.7
2016-11-23T10:50:53.435Z,10.88
2016-11-23T10:51:53.459Z,10.79
2016-11-23T10:52:53.478Z,10.78
2016-11-23T10:53:53.508Z,10.79
2016-11-23T10:54:53.521Z,10.7
2016-11-23T10:55:53.543Z,10.73
2016-11-23T10:56:53.569Z,10.67
2016-11-23T10:57:53.592Z,10.7
2016-11-23T10:59:08.525Z,10.71
2016-11-23T11:00:08.543Z,10.74
2016-11-23T11:00:53.649Z,10.74
2016-11-23T11:01:53.687Z,10.79
2016-11-23T11:02:53.693Z,10.73
2016-11-23T11:03:53.721Z,10.68
2016-11-23T11:04:53.767Z,10.66
2016-11-23T11:05:53.764Z,10.7
2016-11-23T11:07:53.800Z,10.79
2016-11-23T11:08:53.821Z,10.76
2016-11-23T11:09:53.849Z,10.76
2016-11-23T11:10:53.864Z,10.73
2016-11-23T11:11:53.889Z,10.74
2016-11-23T11:13:08.877Z,10.64
2016-11-23T11:13:53.931Z,10.68
2016-11-23T11:15:08.862Z,10.68
2016-11-23T11:15:53.968Z,10.66
2016-11-23T11:16:54.055Z,10.74
2016-11-23T11:17:54.018Z,10.73
2016-11-23T11:18:54.039Z,10.84
2016-11-23T11:19:54.054Z,10.86
2016-11-23T11:20:54.089Z,10.96
2016-11-23T11:21:54.110Z,10.85
2016-11-23T11:22:54.130Z,10.89
2016-11-23T11:23:54.145Z,10.97
2016-11-23T11:24:54.166Z,10.89
2016-11-23T11:25:54.195Z,10.97
2016-11-23T11:27:54.241Z,11
2016-11-23T11:28:54.255Z,11
2016-11-23T11:29:54.273Z,11.09
2016-11-23T11:31:09.209Z,11.07
2016-11-23T11:31:54.316Z,10.97
2016-11-23T11:32:54.337Z,11.06
2016-11-23T11:33:54.369Z,11.06
2016-11-23T11:34:54.384Z,11.06
2016-11-23T11:35:54.406Z,11.06
2016-11-23T11:36:54.426Z,11.02
2016-11-23T11:37:54.450Z,10.91
2016-11-23T11:38:54.479Z,10.89
2016-11-23T11:39:54.495Z,10.96
2016-11-23T11:40:54.520Z,10.91
2016-11-23T11:41:54.531Z,10.89
2016-11-23T11:42:54.553Z,10.89
2016-11-23T11:43:54.578Z,10.85
2016-11-23T11:44:54.603Z,10.88
2016-11-23T11:45:54.623Z,10.92
2016-11-23T11:47:09.557Z,10.86
2016-11-23T11:47:54.665Z,10.85
2016-11-23T11:49:09.601Z,10.91
2016-11-23T11:49:54.708Z,10.88
2016-11-23T11:50:54.734Z,10.85
2016-11-23T11:51:54.755Z,10.97
2016-11-23T11:53:09.686Z,10.96
2016-11-23T11:53:54.794Z,10.89
2016-11-23T11:54:54.823Z,10.88
2016-11-23T11:56:19.234Z,11
2016-11-23T11:56:54.858Z,11
2016-11-23T11:57:54.878Z,11.07
2016-11-23T11:58:54.905Z,11.07
2016-11-23T11:59:55.226Z,11.11
2016-11-23T12:00:54.952Z,11.27
2016-11-23T12:01:54.968Z,11.25
2016-11-23T12:03:09.959Z,11.14
2016-11-23T12:03:55.011Z,11.1
2016-11-23T12:04:55.036Z,11.11
2016-11-23T12:05:55.060Z,11.1
2016-11-23T12:06:55.080Z,11.06
2016-11-23T12:08:55.127Z,11.06
2016-11-23T12:09:55.449Z,11.15
2016-11-23T12:10:55.169Z,11.15
2016-11-23T12:11:55.188Z,11.24
2016-11-23T12:12:55.207Z,11.15
2016-11-23T12:13:55.227Z,11.24
2016-11-23T12:14:55.256Z,11.28
2016-11-23T12:15:55.276Z,11.32
2016-11-23T12:16:55.301Z,11.32
2016-11-23T12:18:10.234Z,11.32
2016-11-23T12:18:55.339Z,11.24
2016-11-23T12:20:10.279Z,11.29
2016-11-23T12:20:55.389Z,11.32
2016-11-23T12:21:55.404Z,11.25
2016-11-23T12:22:55.439Z,11.29
2016-11-23T12:24:10.363Z,11.28
2016-11-23T12:24:55.480Z,11.29
2016-11-23T12:25:55.492Z,11.32
2016-11-23T12:26:55.528Z,11.24
2016-11-23T12:27:55.541Z,11.32
2016-11-23T12:28:55.560Z,11.28
2016-11-23T12:29:55.587Z,11.27
2016-11-23T12:30:55.605Z,11.24
2016-11-23T12:31:55.626Z,11.25
2016-11-23T12:32:55.645Z,11.25
2016-11-23T12:33:55.680Z,11.25
2016-11-23T12:35:10.607Z,11.21
2016-11-23T12:35:55.715Z,11.18
2016-11-23T12:37:55.760Z,11.1
2016-11-23T12:38:55.782Z,11.17
2016-11-23T12:39:55.806Z,11.1
2016-11-23T12:40:55.828Z,11.09
2016-11-23T12:41:55.851Z,11.19
2016-11-23T12:42:55.867Z,11.25
2016-11-23T12:43:55.895Z,11.24
2016-11-23T12:44:55.922Z,11.36
2016-11-23T12:45:55.940Z,11.39
2016-11-23T12:46:55.953Z,11.36
2016-11-23T12:47:55.982Z,11.33
2016-11-23T12:48:56.009Z,11.39
2016-11-23T12:50:10.933Z,11.47
2016-11-23T12:50:56.044Z,11.51
2016-11-23T12:52:10.982Z,11.55
2016-11-23T12:53:10.999Z,11.51
2016-11-23T12:55:11.041Z,11.64
2016-11-23T12:56:11.063Z,11.72
2016-11-23T12:56:56.179Z,11.64
2016-11-23T12:57:56.193Z,11.64
2016-11-23T12:58:56.218Z,11.7
2016-11-23T12:59:56.248Z,11.8
2016-11-23T13:00:56.270Z,11.85
2016-11-23T13:01:56.334Z,11.79
2016-11-23T13:02:56.303Z,11.85
2016-11-23T13:05:11.571Z,11.8
2016-11-23T13:06:11.286Z,11.72
2016-11-23T13:06:56.393Z,11.8
2016-11-23T13:07:56.417Z,11.73
2016-11-23T13:08:56.442Z,11.72
2016-11-23T13:09:56.459Z,11.7
2016-11-23T13:10:56.482Z,11.7
2016-11-23T13:11:56.503Z,11.73
2016-11-23T13:12:56.534Z,11.85
2016-11-23T13:14:56.568Z,11.76
2016-11-23T13:15:56.589Z,11.73
2016-11-23T13:16:56.622Z,11.7
2016-11-23T13:17:56.637Z,11.79
2016-11-23T13:18:56.660Z,11.73
2016-11-23T13:19:56.683Z,11.7
2016-11-23T13:20:56.704Z,11.64
2016-11-23T13:22:11.641Z,11.7
2016-11-23T13:22:56.749Z,11.72
2016-11-23T13:23:56.771Z,11.73
2016-11-23T13:25:11.706Z,11.75
2016-11-23T13:25:56.849Z,11.7
2016-11-23T13:29:11.790Z,11.75
2016-11-23T13:29:56.899Z,11.75
2016-11-23T13:30:56.927Z,11.75
2016-11-23T13:31:56.946Z,11.72
2016-11-23T13:32:56.968Z,11.75
2016-11-23T13:33:56.991Z,11.79
2016-11-23T13:34:57.014Z,11.73
2016-11-23T13:35:57.039Z,11.78
2016-11-23T13:36:57.060Z,11.73
2016-11-23T13:38:11.996Z,11.72
2016-11-23T13:39:12.017Z,11.65
2016-11-23T13:39:57.124Z,11.65
2016-11-23T13:40:57.461Z,11.61
2016-11-23T13:41:57.175Z,11.54
2016-11-23T13:43:12.103Z,11.58
2016-11-23T13:43:57.219Z,11.49
2016-11-23T13:44:57.237Z,11.49
2016-11-23T13:45:57.257Z,11.42
2016-11-23T13:46:57.273Z,11.43
2016-11-23T13:47:57.297Z,11.44
2016-11-23T13:48:57.325Z,11.42
2016-11-23T13:49:57.349Z,11.39
2016-11-23T13:50:57.370Z,11.43
2016-11-23T13:51:57.391Z,11.35
2016-11-23T13:53:12.327Z,11.35
2016-11-23T13:53:57.432Z,11.33
2016-11-23T13:55:12.370Z,11.33
2016-11-23T13:55:57.477Z,11.36
2016-11-23T13:58:57.554Z,11.32
2016-11-23T13:59:57.567Z,11.28
2016-11-23T14:00:57.588Z,11.21
2016-11-23T14:01:57.610Z,11.24
2016-11-23T14:02:57.630Z,11.14
2016-11-23T14:04:57.673Z,11.14
2016-11-23T14:06:57.714Z,11.11
2016-11-23T14:07:57.743Z,11.04
2016-11-23T14:08:57.764Z,11